Flight Track Log - Related Links

Times and Time Zones

All times are in EDT time to prevent confusion due to time zone crossing. See the N929D flight status page for this flight to view local times or setup timezone preferences in your user account.

Time Position Orientation Groundspeed Altitude Reporting Facility
EDT Latitude Longitude Course Direction KTS MPH feet Rate Location/Type
Fri 02:06:00 PM 32.4362 -80.5436 26° Northeast  Level FlightAware Approximate
Fri 02:07:00 PM 32.4812 -80.5179 26° Northeast  Level FlightAware Approximate
Fri 02:08:00 PM 32.5248 -80.4890 29° Northeast  Level FlightAware Approximate
Fri 02:09:00 PM 32.5683 -80.4600 29° Northeast  Level FlightAware Approximate
Fri 02:10:00 PM 32.6121 -80.4316 28° Northeast  Level FlightAware Approximate
Fri 02:11:00 PM 32.6561 -80.4036 28° Northeast  Level FlightAware Approximate
Fri 02:12:00 PM 32.7001 -80.3755 28° Northeast  Level FlightAware Approximate
Fri 02:13:00 PM 32.7441 -80.3475 28° Northeast  Level FlightAware Approximate
Fri 02:14:00 PM 32.7881 -80.3193 28° Northeast  Level FlightAware Approximate
Fri 02:15:00 PM 32.8320 -80.2912 28° Northeast  Level FlightAware Approximate
Fri 02:16:00 PM 32.8760 -80.2630 28° Northeast  Level FlightAware Approximate
Fri 02:17:00 PM 32.9199 -80.2348 28° Northeast  Level FlightAware Approximate
Fri 02:18:00 PM 32.9639 -80.2066 28° Northeast  Level FlightAware Approximate
Fri 02:19:00 PM 33.0076 -80.1779 31° Northeast  Level FlightAware Approximate
Fri 02:20:00 PM 33.0506 -80.1477 31° Northeast  Level FlightAware Approximate
Fri 02:21:00 PM 33.0936 -80.1173 31° Northeast  Level FlightAware Approximate
Fri 02:22:00 PM 33.1366 -80.0870 31° Northeast  Level FlightAware Approximate
Fri 02:23:00 PM 33.1795 -80.0566 31° Northeast  Level FlightAware Approximate
Fri 02:24:00 PM 33.2225 -80.0262 31° Northeast  Level FlightAware Approximate
Fri 02:25:00 PM 33.2654 -79.9957 31° Northeast  Level FlightAware Approximate
Fri 02:26:00 PM 33.3083 -79.9652 31° Northeast  Level FlightAware Approximate
Fri 02:27:00 PM 33.3512 -79.9347 31° Northeast  Level FlightAware Approximate
Fri 02:28:00 PM 33.3941 -79.9042 31° Northeast  Level FlightAware Approximate
Fri 02:29:00 PM 33.4381 -79.8757 28° Northeast  Level FlightAware Approximate
Fri 02:30:00 PM 33.4822 -79.8476 28° Northeast  Level FlightAware Approximate
Fri 02:31:00 PM 33.5262 -79.8195 28° Northeast  Level FlightAware Approximate
Fri 02:32:00 PM 33.5703 -79.7914 28° Northeast  Level FlightAware Approximate
Fri 02:33:00 PM 33.6144 -79.7632 28° Northeast  Level FlightAware Approximate
Fri 02:34:00 PM 33.6584 -79.7350 28° Northeast  Level FlightAware Approximate
Fri 02:35:00 PM 33.7025 -79.7067 28° Northeast  Level FlightAware Approximate
Fri 02:36:00 PM 33.7465 -79.6785 28° Northeast  Level FlightAware Approximate
Fri 02:37:00 PM 33.7905 -79.6501 28° Northeast  Level FlightAware Approximate
Fri 02:38:00 PM 33.8343 -79.6212 30° Northeast  Level FlightAware Approximate
Fri 02:39:00 PM 33.8776 -79.5913 30° Northeast  Level FlightAware Approximate
Fri 02:40:00 PM 33.9209 -79.5614 30° Northeast  Level FlightAware Approximate
Fri 02:41:00 PM 33.9642 -79.5315 30° Northeast  Level FlightAware Approximate
Fri 02:42:00 PM 34.0075 -79.5015 30° Northeast  Level FlightAware Approximate
Fri 02:43:00 PM 34.0508 -79.4715 30° Northeast  Level FlightAware Approximate
Fri 02:44:00 PM 34.0941 -79.4415 30° Northeast  Level FlightAware Approximate
Fri 02:45:00 PM 34.1374 -79.4115 30° Northeast  Level FlightAware Approximate
Fri 02:46:00 PM 34.1807 -79.3814 30° Northeast  Level FlightAware Approximate
Fri 02:47:00 PM 34.2239 -79.3512 30° Northeast  Level FlightAware Approximate
Fri 02:48:00 PM 34.2672 -79.3211 30° Northeast  Level FlightAware Approximate
Fri 02:49:00 PM 34.3105 -79.2909 30° Northeast  Level FlightAware Approximate
Fri 02:50:00 PM 34.3537 -79.2607 30° Northeast  Level FlightAware Approximate
Fri 02:51:00 PM 34.3969 -79.2305 30° Northeast  Level FlightAware Approximate
Fri 02:52:00 PM 34.4403 -79.2004 30° Northeast  Level FlightAware Approximate
Fri 02:53:00 PM 34.4837 -79.1705 30° Northeast  Level FlightAware Approximate
Fri 02:54:00 PM 34.5271 -79.1406 30° Northeast  Level FlightAware Approximate
Fri 02:55:00 PM 34.5705 -79.1107 30° Northeast  Level FlightAware Approximate
Fri 02:56:00 PM 34.6139 -79.0807 30° Northeast  Level FlightAware Approximate
Fri 02:57:00 PM 34.6573 -79.0507 30° Northeast  Level FlightAware Approximate
Fri 02:58:00 PM 34.7007 -79.0207 30° Northeast  Level FlightAware Approximate
Fri 02:59:00 PM 34.7441 -78.9906 30° Northeast  Level FlightAware Approximate
Fri 03:00:00 PM 34.7874 -78.9605 30° Northeast  Level FlightAware Approximate
Fri 03:01:00 PM 34.8308 -78.9304 30° Northeast  Level FlightAware Approximate
Fri 03:02:00 PM 34.8741 -78.9002 30° Northeast  Level FlightAware Approximate
Fri 03:03:00 PM 34.9175 -78.8700 30° Northeast  Level FlightAware Approximate
Fri 03:04:00 PM 34.9608 -78.8398 30° Northeast  Level FlightAware Approximate
Fri 03:05:00 PM 35.0042 -78.8095 30° Northeast  Level FlightAware Approximate
Fri 03:06:00 PM 35.0475 -78.7792 30° Northeast  Level FlightAware Approximate
Fri 03:06:12 PM 35.1383 -78.7339 30° Northeast 192 221 7,100  Level Washington Center
Fri 03:07:00 PM 35.0908 -78.7489 30° Northeast  Level FlightAware Approximate
Fri 03:07:12 PM 35.1831 -78.7025 30° Northeast 192 221 7,100  Level Washington Center
Fri 03:08:00 PM 35.1341 -78.7185 30° Northeast  Level FlightAware Approximate
Fri 03:08:14 PM 35.2319 -78.6689 29° Northeast 192 221 7,100  Level Washington Center
Fri 03:09:00 PM 35.1774 -78.6881 30° Northeast  Level FlightAware Approximate
Fri 03:09:14 PM 35.2744 -78.6347 33° Northeast 189 217 7,100  Level Washington Center
Fri 03:10:00 PM 35.2207 -78.6577 30° Northeast  Level FlightAware Approximate
Fri 03:10:15 PM 35.3231 -78.6061 26° Northeast 189 217 7,200  Level Washington Center
Fri 03:11:00 PM 35.2640 -78.6273 30° Northeast  Level FlightAware Approximate
Fri 03:11:16 PM 35.3678 -78.5722 32° Northeast 191 220 7,100  Level Washington Center
Fri 03:12:56 PM 35.4444 -78.5139 32° Northeast 193 222 7,100 36 Level Washington Center
Fri 03:14:04 PM 35.4997 -78.4725 31° Northeast 198 228 7,200 47 Climbing Washington Center
Fri 03:15:04 PM 35.5442 -78.4408 30° Northeast 194 223 7,200 52 Level Washington Center
Fri 03:15:59 PM 35.5908 -78.4119 27° Northeast 193 222 7,300 259 Climbing Washington Center
Fri 03:17:00 PM 35.6311 -78.3800 33° Northeast 176 203 7,700 396 Climbing Washington Center
Fri 03:17:30 PM 35.6544 -78.3631 31° Northeast 178 205 7,900 436 Climbing Washington Center
Fri 03:17:55 PM 35.6694 -78.3533 28° Northeast 174 200 8,100 492 Climbing Washington Center
Fri 03:18:31 PM 35.6969 -78.3339 30° Northeast 178 205 8,400 424 Climbing Washington Center
Fri 03:19:20 PM 35.7267 -78.3117 31° Northeast 164 189 8,700 353 Climbing Washington Center
Fri 03:20:30 PM 35.7797 -78.2753 29° Northeast 185 213 9,100 137 Climbing Washington Center
Fri 03:21:31 PM 35.8242 -78.2458 28° Northeast 185 213 9,000  Descending Washington Center
Fri 03:22:29 PM 35.8728 -78.2117 30° Northeast 185 213 9,100 51 Climbing Washington Center
Fri 03:23:29 PM 35.9133 -78.1797 33° Northeast 185 213 9,100  Level Washington Center
Fri 03:24:29 PM 35.9642 -78.1428 30° Northeast 191 220 9,100  Level Washington Center
Fri 03:25:30 PM 36.0128 -78.1136 26° Northeast 191 220 9,100  Level Washington Center
Fri 03:26:31 PM 36.0614 -78.0817 28° Northeast 186 214 9,100  Level Washington Center
Fri 03:27:31 PM 36.1100 -78.0550 24° Northeast 186 214 9,100  Level Washington Center
Fri 03:28:29 PM 36.1564 -78.0206 31° Northeast 186 214 9,100  Level Washington Center
Fri 03:29:30 PM 36.2050 -77.9911 26° Northeast 181 208 9,100  Level Washington Center
Fri 03:30:31 PM 36.2494 -77.9564 32° Northeast 181 208 9,100  Level Washington Center
Fri 03:31:32 PM 36.2961 -77.9242 29° Northeast 181 208 9,100  Level Washington Center
Fri 03:32:29 PM 36.3428 -77.8922 29° Northeast 181 208 9,100  Level Washington Center
Fri 03:33:30 PM 36.3892 -77.8625 27° Northeast 181 208 9,100  Level Washington Center
Fri 03:34:30 PM 36.4292 -77.8328 31° Northeast 181 208 9,100  Level Washington Center
Fri 03:35:30 PM 36.4758 -77.8031 27° Northeast 181 208 9,100  Level Washington Center
Fri 03:36:32 PM 36.5222 -77.7733 27° Northeast 181 208 9,100  Level Washington Center
Fri 03:37:29 PM 36.5728 -77.7411 27° Northeast 181 208 9,100  Level Washington Center
Fri 03:38:31 PM 36.6192 -77.7114 27° Northeast 181 208 9,100  Level Washington Center
Fri 03:39:31 PM 36.6658 -77.6739 33° Northeast 181 208 9,100  Level Washington Center
Fri 03:40:30 PM 36.7122 -77.6389 31° Northeast 181 208 9,100  Level Washington Center
Fri 03:41:31 PM 36.7589 -77.6089 27° Northeast 181 208 9,100  Level Washington Center
Fri 03:42:31 PM 36.8053 -77.5789 27° Northeast 181 208 9,100  Level Washington Center
Fri 03:43:31 PM 36.8558 -77.5439 29° Northeast 187 215 9,100  Level Washington Center
Fri 03:44:29 PM 36.9022 -77.5114 29° Northeast 187 215 9,100  Level Washington Center
Fri 03:45:29 PM 36.9467 -77.4786 31° Northeast 187 215 9,100  Level Washington Center
Fri 03:46:30 PM 36.9992 -77.4436 28° Northeast 187 215 9,100  Level Washington Center
Fri 03:47:30 PM 37.0478 -77.4108 28° Northeast 187 215 9,100  Level Washington Center
Fri 03:48:31 PM 37.0942 -77.3781 29° Northeast 187 215 9,100  Level Washington Center
Fri 03:49:31 PM 37.1406 -77.3453 29° Northeast 187 215 9,100  Level Washington Center
Fri 03:50:30 PM 37.1911 -77.3125 27° Northeast 187 215 9,100  Level Washington Center
Fri 03:51:31 PM 37.2375 -77.2797 29° Northeast 187 215 9,100  Level Washington Center
Fri 03:53:59 PM 37.3667 -77.2000 26° Northeast 201 231 9,100  Level Potomac TRACON
Fri 03:54:18 PM 37.3786 -77.1783 55° Northeast 201 231 9,100  Level Washington Center
Fri 03:55:19 PM 37.4206 -77.1531 26° Northeast 201 231 9,100  Level Washington Center
Fri 03:56:19 PM 37.4628 -77.1225 30° Northeast 201 231 9,100  Level Washington Center
Fri 03:57:18 PM 37.5153 -77.0842 30° Northeast 195 224 9,100  Level Washington Center
Fri 03:58:18 PM 37.5594 -77.0536 29° Northeast 195 224 9,100  Level Washington Center
Fri 03:59:19 PM 37.6058 -77.0178 31° Northeast 200 230 9,100  Level Washington Center
Fri 04:00:20 PM 37.6606 -76.9794 29° Northeast 200 230 9,100 -50 Level Washington Center
Fri 04:01:18 PM 37.7028 -76.9408 36° Northeast 206 237 9,000  Descending Washington Center
Fri 04:02:19 PM 37.7097 -76.8703 83° East 216 249 9,100  Climbing Washington Center
Fri 04:03:19 PM 37.7208 -76.7969 79° East 216 249 9,000  Descending Washington Center
Fri 04:04:18 PM 37.7733 -76.7739 19° North 204 235 9,100 50 Climbing Washington Center
Fri 04:05:18 PM 37.8256 -76.7592 13° North 194 223 9,100  Level Washington Center
Fri 04:06:18 PM 37.8756 -76.7467 11° North 184 212 9,100  Level Washington Center
Fri 04:07:19 PM 37.9258 -76.7317 13° North 184 212 9,100  Level Washington Center
Fri 04:08:19 PM 37.9761 -76.7139 16° North 184 212 9,100  Level Washington Center
Fri 04:09:17 PM 38.0242 -76.6964 16° North 184 212 9,100 -110 Level Washington Center
Fri 04:10:08 PM 38.0681 -76.6836 13° North 188 216 8,900 -316 Descending Washington Center
Fri 04:10:33 PM 38.0892 -76.6733 21° North 191 220 8,700 -429 Descending Washington Center
Fri 04:11:18 PM 38.1206 -76.6397 40° Northeast 184 212 8,400 -400 Descending Washington Center
Fri 04:11:33 PM 38.1292 -76.6239 55° Northeast 222 255 8,300 -500 Descending Washington Center
Fri 04:12:18 PM 38.1503 -76.5739 62° Northeast 184 212 7,900 -476 Descending Washington Center
Fri 04:12:36 PM 38.1608 -76.5636 37° Northeast 220 253 7,800 -393 Descending Washington Center
Fri 04:13:19 PM 38.1925 -76.5192 48° Northeast 200 230 7,500 -492 Descending Washington Center
Fri 04:13:37 PM 38.2072 -76.5061 35° Northeast 213 245 7,300 -393 Descending Washington Center
Fri 04:14:20 PM 38.2325 -76.4667 51° Northeast 205 236 7,100 -295 Descending Washington Center
Fri 04:14:38 PM 38.2472 -76.4536 35° Northeast 209 241 7,000 -105 Descending Washington Center
Fri 04:15:17 PM 38.2747 -76.4169 46° Northeast 205 236 7,000  Level Washington Center
Fri 04:15:38 PM 38.2892 -76.4064 30° Northeast 209 241 7,000  Level Washington Center
Fri 04:16:19 PM 38.3167 -76.3778 39° Northeast 200 230 7,000  Level Washington Center
Fri 04:16:40 PM 38.3356 -76.3647 28° Northeast 195 224 7,000  Level Washington Center
Fri 04:17:19 PM 38.3628 -76.3436 31° Northeast 187 215 7,000  Level Washington Center
Fri 04:17:52 PM 38.3919 -76.3150 38° Northeast 192 221 7,000  Level Washington Center
Fri 04:18:19 PM 38.4067 -76.3017 35° Northeast 187 215 7,000  Level Washington Center
Fri 04:18:41 PM 38.4278 -76.2808 38° Northeast 198 228 7,000  Level Washington Center
Fri 04:19:17 PM 38.4486 -76.2597 38° Northeast 187 215 7,000  Level Washington Center
Fri 04:20:52 PM 38.5333 -76.1833 35° Northeast 203 234 7,000  Level Potomac TRACON
Fri 04:21:58 PM 38.5833 -76.1333 38° Northeast 203 234 7,000  Level Potomac TRACON
Fri 04:22:59 PM 38.6167 -76.1000 38° Northeast 194 223 7,000  Level Potomac TRACON
Fri 04:23:59 PM 38.6667 -76.0500 38° Northeast 202 232 7,000  Level Potomac TRACON
Fri 04:24:59 PM 38.7167 -76.0167 27° Northeast 195 224 7,000  Level Potomac TRACON
Fri 04:25:59 PM 38.7667 -75.9833 27° Northeast 196 226 7,000  Level Potomac TRACON
Fri 04:27:00 PM 38.8167 -75.9667 15° North 194 223 7,000  Level Potomac TRACON
Fri 04:28:00 PM 38.8667 -75.9500 15° North 189 217 7,000  Level Potomac TRACON
Fri 04:29:06 PM 38.9167 -75.9333 15° North 191 220 7,000 -142 Level Potomac TRACON
Fri 04:30:07 PM 38.9667 -75.9167 15° North 193 222 6,700 -229 Descending Potomac TRACON
Fri 04:32:36 PM 39.1000 -75.8500 21° North 203 234 6,200 -201 Descending Philadelphia TRACON
Fri 04:33:36 PM 39.1500 -75.8333 14° North 204 235 6,000 -200 Descending Philadelphia TRACON
Fri 04:34:36 PM 39.2167 -75.8167 11° North 202 232 5,800 -200 Descending Philadelphia TRACON
Fri 04:35:36 PM 39.2667 -75.7833 27° Northeast 199 229 5,600 -250 Descending Philadelphia TRACON
Fri 04:36:36 PM 39.3167 -75.7667 14° North 200 230 5,300 -250 Descending Philadelphia TRACON
Fri 04:37:36 PM 39.3667 -75.7500 14° North 193 222 5,100 -150 Descending Philadelphia TRACON
Fri 04:38:36 PM 39.4167 -75.7500 360° North 193 222 5,000 -50 Descending Philadelphia TRACON
Fri 04:39:36 PM 39.4667 -75.7333 14° North 188 216 5,000  Level Philadelphia TRACON
Fri 04:40:36 PM 39.5167 -75.7333 360° North 188 216 5,000  Level Philadelphia TRACON
Fri 04:41:36 PM 39.5833 -75.7167 11° North 191 220 5,000  Level Philadelphia TRACON
Fri 04:42:36 PM 39.6333 -75.7000 14° North 187 215 5,000  Level Philadelphia TRACON
Fri 04:43:36 PM 39.6833 -75.6833 14° North 188 216 5,000  Level Philadelphia TRACON
Fri 04:44:36 PM 39.7333 -75.6667 14° North 184 212 5,000  Level Philadelphia TRACON
Fri 04:45:36 PM 39.7833 -75.6667 360° North 185 213 5,000  Level Philadelphia TRACON
Fri 04:46:36 PM 39.8333 -75.6500 14° North 185 213 5,000 50 Level Philadelphia TRACON
Fri 04:47:36 PM 39.8833 -75.6500 360° North 189 217 5,100  Climbing Philadelphia TRACON
Fri 04:48:36 PM 39.9333 -75.6333 14° North 187 215 5,000 -50 Descending Philadelphia TRACON
Fri 04:49:36 PM 39.9833 -75.6167 14° North 186 214 5,000  Level Philadelphia TRACON
Fri 04:50:36 PM 40.0333 -75.6167 360° North 187 215 5,000  Level Philadelphia TRACON
Fri 04:52:00 PM 40.1045 -75.6334 350° North  Level FlightAware Approximate
Fri 04:59:00 PM 40.4459 -75.6130 41° Northeast  Level FlightAware Approximate
Fri 05:00:00 PM 40.4852 -75.5688 41° Northeast  Level FlightAware Approximate
Fri 05:01:00 PM 40.5248 -75.5252 37° Northeast  Level FlightAware Approximate
Fri 05:02:00 PM 40.5659 -75.4841 37° Northeast  Level FlightAware Approximate
Fri 05:03:00 PM 40.5667 -75.4833 37° Northeast  Level FlightAware Approximate
Fri 05:04:00 PM 40.5703 -75.4883 37° Northeast  Level Estimated
Fri 05:05:00 PM 40.5667 -75.4833 37° Northeast  Level FlightAware Approximate
Fri 05:06:00 PM 40.5703 -75.4883 37° Northeast  Level Estimated
Fri 05:07:00 PM 40.5667 -75.4833 37° Northeast  Level FlightAware Approximate
Fri 05:08:00 PM 40.5703 -75.4883 37° Northeast  Level Estimated
Fri 05:09:00 PM 40.5667 -75.4833 37° Northeast  Level FlightAware Approximate
Fri 05:10:00 PM 40.5703 -75.4883 37° Northeast  Level Estimated
Fri 05:11:00 PM 40.5667 -75.4833 37° Northeast  Level FlightAware Approximate
Fri 05:12:00 PM 40.5703 -75.4883 37° Northeast  Level Estimated
Fri 05:13:00 PM 40.5667 -75.4833 37° Northeast  Level FlightAware Approximate
Fri 05:14:00 PM 40.5703 -75.4883 37° Northeast  Level Estimated
Fri 05:15:00 PM 40.5667 -75.4833 37° Northeast  Level FlightAware Approximate
Fri 05:16:00 PM 40.5703 -75.4883 37° Northeast  Level Estimated
Fri 05:17:00 PM 40.5667 -75.4833 37° Northeast  Level FlightAware Approximate
Fri 05:18:00 PM 40.5703 -75.4883 37° Northeast  Level Estimated
Fri 05:19:00 PM 40.5667 -75.4833 37° Northeast  Level FlightAware Approximate
Fri 05:20:00 PM 40.5703 -75.4883 37° Northeast  Level Estimated
Fri 05:21:00 PM 40.5667 -75.4833 37° Northeast  Level FlightAware Approximate
Fri 05:22:00 PM 40.5703 -75.4883 37° Northeast  Level Estimated

Login

Don't have an account? Register now (free) for customized features, flight alerts, and more!